createdAt,value
2018-07-16T00:02:10.905Z,13.80
2018-07-16T00:04:38.090Z,13.53
2018-07-16T00:07:05.517Z,14.77
2018-07-16T00:09:32.717Z,15.77
2018-07-16T00:11:59.914Z,15.10
2018-07-16T00:14:29.010Z,14.97
2018-07-16T00:16:56.309Z,16.07
2018-07-16T00:19:23.460Z,16.90
2018-07-16T00:21:50.621Z,17.70
2018-07-16T00:24:17.823Z,17.40
2018-07-16T00:26:45.022Z,16.23
2018-07-16T00:29:12.293Z,16.13
2018-07-16T00:31:39.483Z,17.57
2018-07-16T00:34:06.658Z,19.10
2018-07-16T00:36:33.817Z,20.20
2018-07-16T00:39:00.997Z,18.47
2018-07-16T00:41:28.157Z,18.40
2018-07-16T00:43:55.357Z,17.40
2018-07-16T00:46:22.525Z,17.47
2018-07-16T00:48:49.693Z,19.50
2018-07-16T00:51:16.858Z,19.80
2018-07-16T00:53:44.116Z,20.17
2018-07-16T00:56:11.282Z,20.37
2018-07-16T00:58:38.469Z,18.43
2018-07-16T01:01:05.953Z,18.43
2018-07-16T01:03:33.125Z,18.90
2018-07-16T01:06:00.289Z,17.30
2018-07-16T01:08:27.481Z,18.03
2018-07-16T01:10:54.825Z,16.43
2018-07-16T01:13:21.993Z,17.03
2018-07-16T01:15:49.197Z,15.97
2018-07-16T01:18:16.389Z,16.07
2018-07-16T01:20:43.585Z,17.83
2018-07-16T01:23:10.877Z,15.17
2018-07-16T01:25:38.058Z,16.37
2018-07-16T01:28:05.251Z,15.57
2018-07-16T01:30:32.551Z,17.27
2018-07-16T01:32:59.744Z,17.63
2018-07-16T01:35:27.140Z,19.40
2018-07-16T01:37:54.325Z,17.10
2018-07-16T01:40:21.501Z,20.40
2018-07-16T01:42:48.668Z,20.53
2018-07-16T01:45:15.945Z,21.80
2018-07-16T01:47:43.117Z,20.33
2018-07-16T01:50:10.293Z,20.17
2018-07-16T01:52:37.840Z,18.63
2018-07-16T01:55:05.029Z,19.37
2018-07-16T01:57:32.205Z,18.93
2018-07-16T01:59:59.452Z,19.00
2018-07-16T02:02:26.686Z,18.63
2018-07-16T02:04:53.868Z,18.97
2018-07-16T02:07:21.033Z,22.17
2018-07-16T02:09:48.382Z,23.13
2018-07-16T02:12:15.653Z,23.07
2018-07-16T02:14:42.820Z,18.80
2018-07-16T02:17:10.188Z,19.53
2018-07-16T02:19:37.377Z,19.07
2018-07-16T02:22:04.583Z,16.17
2018-07-16T02:24:31.761Z,16.83
2018-07-16T02:26:58.921Z,17.20
2018-07-16T02:29:26.142Z,17.93
2018-07-16T02:31:53.329Z,17.63
2018-07-16T02:34:20.510Z,16.83
2018-07-16T02:36:47.680Z,16.70
2018-07-16T02:39:14.964Z,18.63
2018-07-16T02:41:42.136Z,19.47
2018-07-16T02:44:09.314Z,20.20
2018-07-16T02:46:36.505Z,21.43
2018-07-16T02:49:03.708Z,22.60
2018-07-16T02:51:30.897Z,22.23
2018-07-16T02:53:58.111Z,22.37
2018-07-16T02:56:25.384Z,21.63
2018-07-16T02:58:52.597Z,19.73
2018-07-16T03:01:19.777Z,19.57
2018-07-16T03:03:46.997Z,18.47
2018-07-16T03:06:14.181Z,17.43
2018-07-16T03:08:41.377Z,17.90
2018-07-16T03:11:08.554Z,16.63
2018-07-16T03:13:35.742Z,17.27
2018-07-16T03:16:02.945Z,17.37
2018-07-16T03:18:30.120Z,16.20
2018-07-16T03:20:57.333Z,14.87
2018-07-16T03:23:24.542Z,15.00
2018-07-16T03:25:51.729Z,14.93
2018-07-16T03:28:18.929Z,15.07
2018-07-16T03:30:46.105Z,15.17
2018-07-16T03:33:13.360Z,14.40
2018-07-16T03:35:40.562Z,14.93
2018-07-16T03:38:07.736Z,14.60
2018-07-16T03:40:34.909Z,16.73
2018-07-16T03:43:02.091Z,15.33
2018-07-16T03:45:29.298Z,14.50
2018-07-16T03:47:56.519Z,16.37
2018-07-16T03:50:23.641Z,16.40
2018-07-16T03:52:50.843Z,16.90
2018-07-16T03:55:18.046Z,16.70
2018-07-16T03:57:45.241Z,16.70
2018-07-16T04:00:12.474Z,16.73
2018-07-16T04:02:39.657Z,17.87
2018-07-16T04:05:06.905Z,16.57
2018-07-16T04:07:34.056Z,16.80
2018-07-16T04:10:01.225Z,17.17
2018-07-16T04:12:28.404Z,17.30
2018-07-16T04:14:55.592Z,18.27
2018-07-16T04:17:22.777Z,18.27
2018-07-16T04:19:49.964Z,18.53
2018-07-16T04:22:17.132Z,18.30
2018-07-16T04:24:44.333Z,17.37
2018-07-16T04:27:11.521Z,17.73
2018-07-16T04:29:38.709Z,17.17
2018-07-16T04:32:05.908Z,15.63
2018-07-16T04:34:33.073Z,14.70
2018-07-16T04:37:00.238Z,15.93
2018-07-16T04:39:27.425Z,15.80
2018-07-16T04:41:54.613Z,15.77
2018-07-16T04:44:21.788Z,16.07
2018-07-16T04:46:48.977Z,17.40
2018-07-16T04:49:16.152Z,17.17
2018-07-16T04:51:43.341Z,17.37
2018-07-16T04:54:10.517Z,17.73
2018-07-16T04:56:37.709Z,17.33
2018-07-16T04:59:04.916Z,18.00
2018-07-16T05:01:32.109Z,17.70
2018-07-16T05:03:59.280Z,16.80
2018-07-16T05:06:26.465Z,16.60
2018-07-16T05:08:53.641Z,15.97
2018-07-16T05:11:20.809Z,16.17
2018-07-16T05:13:47.996Z,16.40
2018-07-16T05:16:15.169Z,15.97
2018-07-16T05:18:42.383Z,17.37
2018-07-16T05:21:09.572Z,19.07
2018-07-16T05:23:36.744Z,19.73
2018-07-16T05:26:03.924Z,18.27
2018-07-16T05:28:31.102Z,17.77
2018-07-16T05:30:58.313Z,16.17
2018-07-16T05:33:25.474Z,18.23
2018-07-16T05:35:52.645Z,15.53
2018-07-16T05:38:19.910Z,19.37
2018-07-16T05:40:47.028Z,17.33
2018-07-16T05:43:14.197Z,17.33
2018-07-16T05:45:41.368Z,17.30
2018-07-16T05:48:08.555Z,16.93
2018-07-16T05:50:35.760Z,16.67
2018-07-16T05:53:02.978Z,18.50
2018-07-16T05:55:30.316Z,17.27
2018-07-16T05:57:57.601Z,15.87
2018-07-16T06:00:24.770Z,15.30
2018-07-16T06:02:52.014Z,16.80
2018-07-16T06:05:19.360Z,16.63
2018-07-16T06:07:46.661Z,16.63
2018-07-16T06:10:14.036Z,17.17
2018-07-16T06:12:41.370Z,16.07
2018-07-16T06:15:08.705Z,18.30
2018-07-16T06:17:35.937Z,17.67
2018-07-16T06:20:06.057Z,17.03
2018-07-16T06:22:33.266Z,17.23
2018-07-16T06:25:00.473Z,17.23
2018-07-16T06:27:27.785Z,14.90
2018-07-16T06:29:55.052Z,15.10
2018-07-16T06:32:22.295Z,14.30
2018-07-16T06:34:49.581Z,15.20
2018-07-16T06:37:16.786Z,15.07
2018-07-16T06:39:44.430Z,13.40
2018-07-16T06:42:11.541Z,14.17
2018-07-16T06:44:38.741Z,14.30
2018-07-16T06:47:06.066Z,13.53
2018-07-16T06:49:33.376Z,15.83
2018-07-16T06:52:00.556Z,16.40
2018-07-16T06:54:27.786Z,16.50
2018-07-16T06:56:54.969Z,16.30
2018-07-16T06:59:22.175Z,19.17
2018-07-16T07:01:49.504Z,20.23
2018-07-16T07:04:16.660Z,17.83
2018-07-16T07:06:43.882Z,21.60
2018-07-16T07:09:11.085Z,19.77
2018-07-16T07:11:38.261Z,21.00
2018-07-16T07:14:05.497Z,18.13
2018-07-16T07:16:32.941Z,18.93
2018-07-16T07:19:00.134Z,18.87
2018-07-16T07:21:27.404Z,19.10
2018-07-16T07:23:54.653Z,16.13
2018-07-16T07:26:21.825Z,15.53
2018-07-16T07:28:49.005Z,16.27
2018-07-16T07:31:16.194Z,16.37
2018-07-16T07:33:43.401Z,14.83
2018-07-16T07:36:10.605Z,18.87
2018-07-16T07:38:37.791Z,15.10
2018-07-16T07:41:05.160Z,13.97
2018-07-16T07:43:32.308Z,14.07
2018-07-16T07:45:59.497Z,15.67
2018-07-16T07:48:26.761Z,17.33
2018-07-16T07:50:53.965Z,13.03
2018-07-16T07:53:21.133Z,12.13
2018-07-16T07:55:48.352Z,15.07
2018-07-16T07:58:15.517Z,13.73
2018-07-16T08:00:42.696Z,12.83
2018-07-16T08:03:09.920Z,10.03
2018-07-16T08:05:37.060Z,9.73
2018-07-16T08:08:04.436Z,12.63
2018-07-16T08:10:31.692Z,12.77
2018-07-16T08:12:58.830Z,14.47
2018-07-16T08:15:26.033Z,14.80
2018-07-16T08:17:53.265Z,14.60
2018-07-16T08:20:20.457Z,13.20
2018-07-16T08:22:47.648Z,13.73
2018-07-16T08:25:14.872Z,12.93
2018-07-16T08:27:42.065Z,12.70
2018-07-16T08:30:09.266Z,13.27
2018-07-16T08:32:36.459Z,13.47
2018-07-16T08:35:04.051Z,13.20
2018-07-16T08:37:31.236Z,13.57
2018-07-16T08:39:58.530Z,12.30
2018-07-16T08:42:25.762Z,13.43
2018-07-16T08:44:52.952Z,13.57
2018-07-16T08:47:20.160Z,13.47
2018-07-16T08:49:47.334Z,13.37
2018-07-16T08:52:14.530Z,11.10
2018-07-16T08:54:41.717Z,11.50
2018-07-16T08:57:09.121Z,10.70
2018-07-16T08:59:36.303Z,11.77
2018-07-16T09:02:03.500Z,9.47
2018-07-16T09:04:30.657Z,9.07
2018-07-16T09:06:57.857Z,9.70
2018-07-16T09:09:25.017Z,8.90
2018-07-16T09:11:52.336Z,8.70
2018-07-16T09:14:19.521Z,8.23
2018-07-16T09:16:46.731Z,7.40
2018-07-16T09:19:14.004Z,8.63
2018-07-16T09:21:41.112Z,8.27
2018-07-16T09:24:08.292Z,9.57
2018-07-16T09:26:35.546Z,7.43
2018-07-16T09:29:02.745Z,5.70
2018-07-16T09:31:29.914Z,5.63
2018-07-16T09:33:57.073Z,4.80
2018-07-16T09:36:24.269Z,4.10
2018-07-16T09:38:51.503Z,4.00
2018-07-16T09:41:18.657Z,3.33
2018-07-16T09:43:45.858Z,3.40
2018-07-16T09:46:13.105Z,3.13
2018-07-16T09:48:40.270Z,3.80
2018-07-16T09:51:07.591Z,3.10
2018-07-16T09:53:34.760Z,3.20
2018-07-16T09:56:01.926Z,2.80
2018-07-16T09:58:29.101Z,3.00
2018-07-16T10:01:01.897Z,3.30
2018-07-16T10:03:29.073Z,2.90
2018-07-16T10:05:56.298Z,2.77
2018-07-16T10:08:23.542Z,3.37
2018-07-16T10:10:50.673Z,3.47
2018-07-16T10:13:17.881Z,3.70
2018-07-16T10:15:45.041Z,3.77
2018-07-16T10:18:12.217Z,3.40
2018-07-16T10:20:39.588Z,3.40
2018-07-16T10:23:06.605Z,3.77
2018-07-16T10:25:33.784Z,3.53
2018-07-16T10:28:00.956Z,4.07
2018-07-16T10:30:28.145Z,3.83
2018-07-16T10:32:55.324Z,3.00
2018-07-16T10:35:22.485Z,3.80
2018-07-16T10:37:49.673Z,3.43
2018-07-16T10:40:16.863Z,3.30
2018-07-16T10:42:44.060Z,2.93
2018-07-16T10:45:11.234Z,2.80
2018-07-16T10:47:38.418Z,3.03
2018-07-16T10:50:05.781Z,3.03
2018-07-16T10:52:32.972Z,2.90
2018-07-16T10:55:00.142Z,3.00
2018-07-16T10:57:27.347Z,3.30
2018-07-16T10:59:54.526Z,3.30
2018-07-16T11:02:21.741Z,3.20
2018-07-16T11:04:48.933Z,4.17
2018-07-16T11:07:16.105Z,3.13
2018-07-16T11:09:43.304Z,3.30
2018-07-16T11:12:10.593Z,3.47
2018-07-16T11:14:37.753Z,3.50
2018-07-16T11:17:04.948Z,3.20
2018-07-16T11:19:32.110Z,2.90
2018-07-16T11:21:59.351Z,2.90
2018-07-16T11:24:26.517Z,3.50
2018-07-16T11:26:53.708Z,3.17
2018-07-16T11:29:20.866Z,2.87
2018-07-16T11:31:48.025Z,3.20
2018-07-16T11:34:15.208Z,3.13
2018-07-16T11:36:42.396Z,3.13
2018-07-16T11:39:09.581Z,3.27
2018-07-16T11:41:36.928Z,3.40
2018-07-16T11:44:04.153Z,3.70
2018-07-16T11:46:31.381Z,3.63
2018-07-16T11:48:58.552Z,3.03
2018-07-16T11:51:25.733Z,3.10
2018-07-16T11:53:52.937Z,3.20
2018-07-16T11:56:20.109Z,4.07
2018-07-16T11:58:47.433Z,4.10
2018-07-16T12:01:14.618Z,3.90
2018-07-16T12:03:41.817Z,4.03
2018-07-16T12:06:14.647Z,4.10
2018-07-16T12:08:41.826Z,3.90
2018-07-16T12:11:09.004Z,4.00
2018-07-16T12:13:36.197Z,3.80
2018-07-16T12:16:03.367Z,3.80
2018-07-16T12:18:31.102Z,3.77
2018-07-16T12:20:58.260Z,4.00
2018-07-16T12:23:25.429Z,3.63
2018-07-16T12:25:52.609Z,4.27
2018-07-16T12:28:19.898Z,3.80
2018-07-16T12:30:47.140Z,4.00
2018-07-16T12:33:14.317Z,4.50
2018-07-16T12:35:41.481Z,4.53
2018-07-16T12:38:08.661Z,4.00
2018-07-16T12:40:35.967Z,4.13
2018-07-16T12:43:03.157Z,3.70
2018-07-16T12:45:30.600Z,4.07
2018-07-16T12:47:57.781Z,3.77
2018-07-16T12:50:24.988Z,4.07
2018-07-16T12:52:52.183Z,3.63
2018-07-16T12:55:19.343Z,3.60
2018-07-16T12:57:46.519Z,4.00
2018-07-16T13:00:13.808Z,3.77
2018-07-16T13:02:41.288Z,3.93
2018-07-16T13:05:08.472Z,3.97
2018-07-16T13:07:35.678Z,3.50
2018-07-16T13:10:02.868Z,3.63
2018-07-16T13:12:30.102Z,3.20
2018-07-16T13:14:57.286Z,3.60
2018-07-16T13:17:24.485Z,3.43
2018-07-16T13:19:51.766Z,3.50
2018-07-16T13:22:18.929Z,3.37
2018-07-16T13:24:46.120Z,4.07
2018-07-16T13:27:13.300Z,3.77
2018-07-16T13:29:40.477Z,4.00
2018-07-16T13:32:07.677Z,4.17
2018-07-16T13:34:34.933Z,4.00
2018-07-16T13:37:02.155Z,4.00
2018-07-16T13:39:29.292Z,3.87
2018-07-16T13:41:56.449Z,4.03
2018-07-16T13:44:23.618Z,3.87
2018-07-16T13:46:50.889Z,3.90
2018-07-16T13:49:18.029Z,3.80
2018-07-16T13:51:45.213Z,3.43
2018-07-16T13:54:12.408Z,3.83
2018-07-16T13:56:39.573Z,3.60
2018-07-16T13:59:06.778Z,4.03
2018-07-16T14:01:34.034Z,3.50
2018-07-16T14:04:01.207Z,3.60
2018-07-16T14:06:28.638Z,3.80
2018-07-16T14:08:55.817Z,3.33
2018-07-16T14:11:22.977Z,3.57
2018-07-16T14:13:50.333Z,3.53
2018-07-16T14:16:17.697Z,3.67
2018-07-16T14:18:51.761Z,3.67
2018-07-16T14:21:18.996Z,3.80
2018-07-16T14:23:46.168Z,3.70
2018-07-16T14:26:13.347Z,3.87
2018-07-16T14:28:40.520Z,3.53
2018-07-16T14:31:07.754Z,3.80
2018-07-16T14:33:34.889Z,3.70
2018-07-16T14:36:02.192Z,4.13
2018-07-16T14:38:29.368Z,6.30
2018-07-16T14:40:56.556Z,4.10
2018-07-16T14:43:23.728Z,4.00
2018-07-16T14:45:50.885Z,3.70
2018-07-16T14:48:18.066Z,3.50
2018-07-16T14:50:45.240Z,3.80
2018-07-16T14:53:12.405Z,3.80
2018-07-16T14:55:39.593Z,4.03
2018-07-16T14:58:06.765Z,4.00
2018-07-16T15:00:34.057Z,3.83
2018-07-16T15:03:01.219Z,3.90
2018-07-16T15:05:28.392Z,4.00
2018-07-16T15:07:55.570Z,3.70
2018-07-16T15:10:22.745Z,4.23
2018-07-16T15:12:49.928Z,3.80
2018-07-16T15:15:17.221Z,3.90
2018-07-16T15:17:44.384Z,3.70
2018-07-16T15:20:11.635Z,4.10
2018-07-16T15:22:38.745Z,3.77
2018-07-16T15:25:06.080Z,4.03
2018-07-16T15:27:33.260Z,3.83
2018-07-16T15:30:00.475Z,3.73
2018-07-16T15:32:27.637Z,3.70
2018-07-16T15:34:55.026Z,3.60
2018-07-16T15:37:22.225Z,3.93
2018-07-16T15:39:49.421Z,3.50
2018-07-16T15:42:16.580Z,3.40
2018-07-16T15:44:43.745Z,4.00
2018-07-16T15:47:11.157Z,3.30
2018-07-16T15:49:38.522Z,3.70
2018-07-16T15:52:06.200Z,3.70
2018-07-16T15:54:33.364Z,3.70
2018-07-16T15:57:00.557Z,3.70
2018-07-16T15:59:27.737Z,3.50
2018-07-16T16:01:55.001Z,3.67
2018-07-16T16:04:22.189Z,3.50
2018-07-16T16:06:49.384Z,3.27
2018-07-16T16:09:16.552Z,3.63
2018-07-16T16:11:43.774Z,3.70
2018-07-16T16:14:10.937Z,3.20
2018-07-16T16:16:38.361Z,3.40
2018-07-16T16:19:05.538Z,3.53
2018-07-16T16:21:33.025Z,3.47
2018-07-16T16:24:00.409Z,3.20
2018-07-16T16:26:27.693Z,3.33
2018-07-16T16:28:54.904Z,3.67
2018-07-16T16:31:22.212Z,3.53
2018-07-16T16:33:49.380Z,3.30
2018-07-16T16:36:16.561Z,3.60
2018-07-16T16:38:43.742Z,3.50
2018-07-16T16:41:10.952Z,3.70
2018-07-16T16:43:38.122Z,3.60
2018-07-16T16:46:05.703Z,3.83
2018-07-16T16:48:32.902Z,3.30
2018-07-16T16:51:00.120Z,3.40
2018-07-16T16:53:27.309Z,3.40
2018-07-16T16:55:54.553Z,3.60
2018-07-16T16:58:21.862Z,4.10
2018-07-16T17:00:49.368Z,4.50
2018-07-16T17:03:16.531Z,4.30
2018-07-16T17:05:43.727Z,4.20
2018-07-16T17:08:10.905Z,3.93
2018-07-16T17:10:38.081Z,4.30
2018-07-16T17:13:05.245Z,4.00
2018-07-16T17:15:32.493Z,4.13
2018-07-16T17:17:59.722Z,3.97
2018-07-16T17:20:26.921Z,4.37
2018-07-16T17:22:54.145Z,4.20
2018-07-16T17:25:21.329Z,4.27
2018-07-16T17:27:49.287Z,4.20
2018-07-16T17:30:17.616Z,4.30
2018-07-16T17:32:44.872Z,3.90
2018-07-16T17:35:12.071Z,4.00
2018-07-16T17:37:39.265Z,4.20
2018-07-16T17:40:06.489Z,4.00
2018-07-16T17:42:33.694Z,4.20
2018-07-16T17:45:00.917Z,4.50
2018-07-16T17:47:28.084Z,4.73
2018-07-16T17:49:55.289Z,5.00
2018-07-16T17:52:22.479Z,4.60
2018-07-16T17:54:49.704Z,4.37
2018-07-16T17:57:16.864Z,3.33
2018-07-16T17:59:44.049Z,3.83
2018-07-16T18:02:11.337Z,3.47
2018-07-16T18:04:38.584Z,3.80
2018-07-16T18:07:05.850Z,3.70
2018-07-16T18:09:33.090Z,3.97
2018-07-16T18:12:00.381Z,3.90
2018-07-16T18:14:27.621Z,4.43
2018-07-16T18:16:54.901Z,4.50
2018-07-16T18:19:22.061Z,132.17
2018-07-16T18:21:49.351Z,48.23
2018-07-16T18:24:16.573Z,67.40
2018-07-16T18:26:43.857Z,38.00
2018-07-16T18:29:11.021Z,25.77
2018-07-16T18:31:38.685Z,14.23
2018-07-16T18:34:06.353Z,11.17
2018-07-16T18:36:33.553Z,6.40
2018-07-16T18:39:00.804Z,6.10
2018-07-16T18:41:27.968Z,5.40
2018-07-16T18:43:55.241Z,4.47
2018-07-16T18:46:22.478Z,4.23
2018-07-16T18:48:49.833Z,3.87
2018-07-16T18:51:17.037Z,3.73
2018-07-16T18:53:44.241Z,3.20
2018-07-16T18:56:11.465Z,2.97
2018-07-16T18:58:38.667Z,2.87
2018-07-16T19:01:05.977Z,3.40
2018-07-16T19:03:33.187Z,3.20
2018-07-16T19:06:00.375Z,3.33
2018-07-16T19:08:27.718Z,3.30
2018-07-16T19:10:54.945Z,3.30
2018-07-16T19:13:22.125Z,3.50
2018-07-16T19:15:49.345Z,3.47
2018-07-16T19:18:16.539Z,3.40
2018-07-16T19:20:43.740Z,3.43
2018-07-16T19:23:10.937Z,3.77
2018-07-16T19:25:38.117Z,5.67
2018-07-16T19:28:05.332Z,4.60
2018-07-16T19:30:32.573Z,3.47
2018-07-16T19:32:59.785Z,3.70
2018-07-16T19:35:27.059Z,3.20
2018-07-16T19:37:54.308Z,3.33
2018-07-16T19:40:21.701Z,3.50
2018-07-16T19:42:48.909Z,3.37
2018-07-16T19:45:16.087Z,3.50
2018-07-16T19:47:43.313Z,3.77
2018-07-16T19:50:10.525Z,6.70
2018-07-16T19:52:37.921Z,11.00
2018-07-16T19:55:05.244Z,102.90
2018-07-16T19:57:32.553Z,46.80
2018-07-16T19:59:59.720Z,24.07
2018-07-16T20:02:26.914Z,8.50
2018-07-16T20:04:54.072Z,5.57
2018-07-16T20:07:21.404Z,5.30
2018-07-16T20:09:48.564Z,4.60
2018-07-16T20:12:26.273Z,3.97
2018-07-16T20:14:53.518Z,4.10
2018-07-16T20:17:20.669Z,4.00
2018-07-16T20:19:47.873Z,4.13
2018-07-16T20:22:15.341Z,4.20
2018-07-16T20:24:42.654Z,4.00
2018-07-16T20:27:09.926Z,4.30
2018-07-16T20:29:37.116Z,4.37
2018-07-16T20:32:04.444Z,4.20
2018-07-16T20:34:31.668Z,4.30
2018-07-16T20:36:58.937Z,4.13
2018-07-16T20:39:26.121Z,4.60
2018-07-16T20:41:53.408Z,4.43
2018-07-16T20:44:20.829Z,4.50
2018-07-16T20:46:48.097Z,4.47
2018-07-16T20:49:15.256Z,4.33
2018-07-16T20:51:42.431Z,4.33
2018-07-16T20:54:09.626Z,4.87
2018-07-16T20:56:36.869Z,4.60
2018-07-16T20:59:04.289Z,4.83
2018-07-16T21:01:31.592Z,5.03
2018-07-16T21:03:58.765Z,4.70
2018-07-16T21:06:26.013Z,5.53
2018-07-16T21:08:53.172Z,5.33
2018-07-16T21:11:20.365Z,5.30
2018-07-16T21:13:47.541Z,5.30
2018-07-16T21:16:14.748Z,5.23
2018-07-16T21:18:41.941Z,5.27
2018-07-16T21:21:09.108Z,5.07
2018-07-16T21:23:36.453Z,4.97
2018-07-16T21:26:03.785Z,5.20
2018-07-16T21:28:30.988Z,5.23
2018-07-16T21:30:58.148Z,5.07
2018-07-16T21:33:25.346Z,4.77
2018-07-16T21:35:52.541Z,4.80
2018-07-16T21:38:19.721Z,5.17
2018-07-16T21:40:47.125Z,4.73
2018-07-16T21:43:14.290Z,5.07
2018-07-16T21:45:41.473Z,5.03
2018-07-16T21:48:08.694Z,4.80
2018-07-16T21:50:35.964Z,5.10
2018-07-16T21:53:03.181Z,4.73
2018-07-16T21:55:30.393Z,4.60
2018-07-16T21:57:57.661Z,4.83
2018-07-16T22:00:27.322Z,5.17
2018-07-16T22:02:54.553Z,5.30
2018-07-16T22:05:22.393Z,5.17
2018-07-16T22:07:49.593Z,5.10
2018-07-16T22:10:16.785Z,5.10
2018-07-16T22:12:43.993Z,5.23
2018-07-16T22:15:15.553Z,6.17
2018-07-16T22:17:42.748Z,5.70
2018-07-16T22:20:10.003Z,6.60
2018-07-16T22:22:37.181Z,6.13
2018-07-16T22:25:04.365Z,5.97
2018-07-16T22:27:31.880Z,5.63
2018-07-16T22:29:59.078Z,5.63
2018-07-16T22:32:26.253Z,5.60
2018-07-16T22:34:53.424Z,5.50
2018-07-16T22:37:20.592Z,5.70
2018-07-16T22:39:47.781Z,6.00
2018-07-16T22:42:14.978Z,5.70
2018-07-16T22:44:42.265Z,5.80
2018-07-16T22:47:09.461Z,5.97
2018-07-16T22:49:36.642Z,5.87
2018-07-16T22:52:03.833Z,5.47
2018-07-16T22:54:30.992Z,5.03
2018-07-16T22:56:58.247Z,5.73
2018-07-16T22:59:25.419Z,5.90
2018-07-16T23:01:52.667Z,6.00
2018-07-16T23:04:20.605Z,6.23
2018-07-16T23:06:47.909Z,6.93
2018-07-16T23:09:15.097Z,7.03
2018-07-16T23:11:42.271Z,6.93
2018-07-16T23:14:09.447Z,6.40
2018-07-16T23:16:36.614Z,7.00
2018-07-16T23:19:03.795Z,7.03
2018-07-16T23:21:30.990Z,7.13
2018-07-16T23:23:58.160Z,6.83
2018-07-16T23:26:25.315Z,6.43
2018-07-16T23:28:52.530Z,6.33
2018-07-16T23:31:19.680Z,6.57
2018-07-16T23:33:46.858Z,6.30
2018-07-16T23:36:14.023Z,6.97
2018-07-16T23:38:41.209Z,6.17
2018-07-16T23:41:08.452Z,5.83
2018-07-16T23:43:35.623Z,6.13
2018-07-16T23:46:02.843Z,5.77
2018-07-16T23:48:30.024Z,5.77
2018-07-16T23:50:57.216Z,5.37
2018-07-16T23:53:24.400Z,5.50
2018-07-16T23:55:51.613Z,5.30
2018-07-16T23:58:18.719Z,5.63
